Time;durP1;ratioP1;P1;durP2;ratioP2;P2;SDS_P1;SDS_P2;PMS_P1;PMS_P2;Temp;Humidity;BMP_temperature;BMP_pressure;BME280_temperature;BME280_humidity;BME280_pressure;Samples;Min_cycle;Max_cycle;Signal;HPM_P1;HPM_P2
2022/03/22 00:00:10;;;;;;;20.13;11.17;;;7.70;86.00;;;;;;5035880;28;20246;-73
2022/03/22 00:02:36;;;;;;;20.60;10.77;;;7.70;86.10;;;;;;5040025;28;20266;-75
2022/03/22 00:05:03;;;;;;;14.83;10.30;;;7.70;86.50;;;;;;5045146;28;20203;-74
2022/03/22 00:07:28;;;;;;;14.20;9.57;;;7.70;86.40;;;;;;5045873;28;20223;-75
2022/03/22 00:09:54;;;;;;;16.40;9.77;;;7.70;86.70;;;;;;5042534;28;20235;-76
2022/03/22 00:12:19;;;;;;;19.23;10.77;;;7.70;87.00;;;;;;5050539;28;20254;-75
2022/03/22 00:14:45;;;;;;;17.33;10.90;;;7.70;87.30;;;;;;5040626;28;20550;-75
2022/03/22 00:17:11;;;;;;;16.60;10.50;;;7.60;87.50;;;;;;5046396;28;20700;-75
2022/03/22 00:19:37;;;;;;;17.27;11.20;;;7.60;87.70;;;;;;5044343;28;20755;-72
2022/03/22 00:22:04;;;;;;;19.03;10.20;;;7.60;87.90;;;;;;5054538;28;20208;-74
2022/03/22 00:24:30;;;;;;;14.13;10.30;;;7.50;88.10;;;;;;5044246;28;20180;-72
2022/03/22 00:26:55;;;;;;;18.33;10.57;;;7.50;88.30;;;;;;5043301;28;20219;-75
2022/03/22 00:29:21;;;;;;;16.37;10.57;;;7.50;88.70;;;;;;5042047;28;20642;-75
2022/03/22 00:31:46;;;;;;;17.67;10.93;;;7.40;88.70;;;;;;5042482;28;20613;-76
2022/03/22 00:34:13;;;;;;;16.57;10.27;;;7.40;89.00;;;;;;5041463;28;20291;-76
2022/03/22 00:36:40;;;;;;;20.50;10.63;;;7.40;89.10;;;;;;5044878;28;20177;-78
2022/03/22 00:39:06;;;;;;;16.23;11.03;;;7.30;89.20;;;;;;5048630;28;20216;-75
2022/03/22 00:41:31;;;;;;;18.87;10.67;;;7.30;89.40;;;;;;5050086;28;20218;-76
2022/03/22 00:43:57;;;;;;;16.87;10.90;;;7.30;89.60;;;;;;5046103;28;20246;-76
2022/03/22 00:46:22;;;;;;;16.73;10.93;;;7.30;89.70;;;;;;5045516;28;20244;-75
2022/03/22 00:48:48;;;;;;;19.30;10.77;;;7.30;89.50;;;;;;5044371;28;20222;-74
2022/03/22 00:51:14;;;;;;;22.83;10.93;;;7.30;90.50;;;;;;5046321;28;20176;-76
2022/03/22 00:53:40;;;;;;;20.17;10.87;;;7.40;90.10;;;;;;5043427;28;20216;-76
2022/03/22 00:56:06;;;;;;;16.83;10.83;;;7.30;90.00;;;;;;5041563;28;20254;-77
2022/03/22 00:58:32;;;;;;;17.53;10.90;;;7.20;90.00;;;;;;5041436;28;20283;-75
2022/03/22 01:00:58;;;;;;;15.37;10.17;;;7.20;90.20;;;;;;5045918;28;20745;-76
2022/03/22 01:03:23;;;;;;;17.53;10.83;;;7.10;90.30;;;;;;5039491;28;20169;-74
2022/03/22 01:05:52;;;;;;;18.60;10.77;;;7.10;90.30;;;;;;5048182;28;20233;-77
2022/03/22 01:08:18;;;;;;;21.17;10.37;;;7.10;90.40;;;;;;5043547;28;20218;-75
2022/03/22 01:10:51;;;;;;;14.93;9.87;;;7.10;90.60;;;;;;5041818;28;20211;-75
2022/03/22 01:13:21;;;;;;;19.97;11.00;;;7.00;90.60;;;;;;5045813;28;20248;-75
2022/03/22 01:15:47;;;;;;;21.43;11.27;;;7.00;90.70;;;;;;5041877;28;20712;-76
2022/03/22 01:18:13;;;;;;;19.50;10.70;;;7.00;90.80;;;;;;5041021;28;20172;-75
2022/03/22 01:20:44;;;;;;;18.93;10.30;;;7.00;90.90;;;;;;5044535;28;20212;-74
2022/03/22 01:23:11;;;;;;;18.33;10.50;;;7.00;90.80;;;;;;5044202;28;20200;-76
2022/03/22 01:25:38;;;;;;;17.30;10.57;;;7.00;90.80;;;;;;5042096;28;20338;-75
2022/03/22 01:28:07;;;;;;;16.03;10.47;;;6.90;90.90;;;;;;5041163;28;20283;-75
2022/03/22 01:30:33;;;;;;;19.70;10.47;;;7.00;91.20;;;;;;5042006;28;20192;-75
2022/03/22 01:32:59;;;;;;;17.83;11.53;;;6.90;91.20;;;;;;5045491;28;20545;-76
2022/03/22 01:35:25;;;;;;;19.87;10.97;;;6.80;91.20;;;;;;5044359;28;20207;-76
2022/03/22 01:37:53;;;;;;;17.23;10.23;;;6.80;91.20;;;;;;5041280;28;20208;-76
2022/03/22 01:40:21;;;;;;;19.73;10.53;;;6.80;91.40;;;;;;5040872;28;20244;-76
2022/03/22 01:42:47;;;;;;;16.77;10.43;;;6.80;91.50;;;;;;5060540;28;20200;-76
2022/03/22 01:45:13;;;;;;;17.63;11.30;;;6.80;91.60;;;;;;5045283;28;20171;-76
2022/03/22 01:47:40;;;;;;;19.20;10.57;;;6.80;91.70;;;;;;5042120;28;20227;-75
2022/03/22 01:50:10;;;;;;;21.20;10.70;;;6.70;91.70;;;;;;5045191;28;20215;-76
2022/03/22 01:52:39;;;;;;;17.70;11.37;;;6.70;91.90;;;;;;5041997;28;20303;-75
2022/03/22 01:55:06;;;;;;;17.73;10.30;;;6.70;91.90;;;;;;5044698;28;20215;-76
2022/03/22 01:57:33;;;;;;;16.30;10.70;;;6.60;92.10;;;;;;5043257;28;20653;-75
2022/03/22 01:59:59;;;;;;;20.07;10.77;;;6.60;92.40;;;;;;5040969;28;20193;-77
2022/03/22 02:07:57;;;;;;;19.53;11.53;;;6.50;93.00;;;;;;5040750;28;20648;-76
2022/03/22 02:10:22;;;;;;;19.70;11.67;;;6.40;93.20;;;;;;5039830;28;20704;-75
2022/03/22 02:12:48;;;;;;;20.83;11.70;;;6.40;93.20;;;;;;5048367;28;20208;-76
2022/03/22 02:15:13;;;;;;;21.80;11.63;;;6.30;93.70;;;;;;5040074;28;20188;-76
2022/03/22 02:17:45;;;;;;;18.23;11.47;;;6.20;93.80;;;;;;5041555;28;20579;-76
2022/03/22 02:20:11;;;;;;;19.37;11.43;;;6.20;93.90;;;;;;5043738;28;20348;-75
2022/03/22 02:22:58;;;;;;;20.57;11.77;;;6.10;94.10;;;;;;5040547;28;20210;-75
2022/03/22 02:25:23;;;;;;;22.93;10.53;;;6.00;94.20;;;;;;5041226;28;20215;-77
2022/03/22 02:27:53;;;;;;;25.17;12.03;;;6.00;94.50;;;;;;5041759;28;20205;-76
2022/03/22 02:30:19;;;;;;;19.13;11.07;;;6.00;94.40;;;;;;5042705;28;20207;-77
2022/03/22 02:32:52;;;;;;;17.93;10.90;;;6.00;94.50;;;;;;5039315;28;20207;-76
2022/03/22 02:35:19;;;;;;;20.23;10.93;;;5.90;94.60;;;;;;5040477;28;20211;-76
2022/03/22 02:37:46;;;;;;;19.83;11.00;;;6.00;94.60;;;;;;5043212;28;20211;-77
2022/03/22 02:40:13;;;;;;;18.63;11.80;;;6.00;94.60;;;;;;5043298;28;20222;-76
2022/03/22 02:42:42;;;;;;;16.30;10.13;;;6.00;94.50;;;;;;5047608;28;20188;-76
2022/03/22 02:45:08;;;;;;;17.93;10.70;;;6.00;94.40;;;;;;5047083;28;20567;-75
2022/03/22 02:47:34;;;;;;;17.63;10.63;;;6.10;94.50;;;;;;5040283;28;20635;-76
2022/03/22 02:49:59;;;;;;;18.83;11.03;;;6.00;94.50;;;;;;5038217;28;20281;-76
2022/03/22 02:52:25;;;;;;;19.27;10.77;;;5.90;94.70;;;;;;5040652;28;20206;-76
2022/03/22 02:54:50;;;;;;;17.27;11.23;;;5.90;94.80;;;;;;5043708;28;20206;-75
2022/03/22 02:57:16;;;;;;;17.40;11.03;;;5.80;95.00;;;;;;5043974;28;20723;-75
2022/03/22 02:59:41;;;;;;;19.67;11.20;;;5.80;95.30;;;;;;5038187;28;20284;-75
2022/03/22 03:02:07;;;;;;;20.47;11.77;;;5.80;95.50;;;;;;5038680;28;20207;-75
2022/03/22 03:04:32;;;;;;;19.70;11.87;;;5.70;95.90;;;;;;5041559;28;20208;-76
2022/03/22 03:06:58;;;;;;;19.40;11.40;;;5.60;95.90;;;;;;5041889;28;20238;-74
2022/03/22 03:09:23;;;;;;;19.67;12.00;;;5.70;95.80;;;;;;5034185;28;20263;-76
2022/03/22 03:11:49;;;;;;;19.70;10.83;;;5.60;95.90;;;;;;5051339;28;20261;-76
2022/03/22 03:16:59;;;;;;;21.17;10.60;;;5.60;95.90;;;;;;5043396;28;20221;-77
2022/03/22 03:19:25;;;;;;;20.87;11.53;;;5.60;95.80;;;;;;5040296;28;20213;-76
2022/03/22 03:21:50;;;;;;;21.90;11.60;;;5.60;95.90;;;;;;5039690;28;20205;-77
2022/03/22 03:24:16;;;;;;;21.07;12.00;;;5.50;95.90;;;;;;5040222;28;20185;-76
2022/03/22 03:26:41;;;;;;;19.07;11.13;;;5.60;95.90;;;;;;5039739;28;20246;-76
2022/03/22 03:29:09;;;;;;;20.27;11.23;;;5.60;95.90;;;;;;5039045;28;20696;-76
2022/03/22 03:31:34;;;;;;;18.47;11.50;;;5.60;95.80;;;;;;5038658;28;20313;-77
2022/03/22 03:34:00;;;;;;;20.60;11.47;;;5.50;95.80;;;;;;5044265;28;20297;-77
2022/03/22 03:36:25;;;;;;;18.20;10.37;;;5.60;95.90;;;;;;5039838;28;20196;-76
2022/03/22 03:38:51;;;;;;;19.20;11.47;;;5.60;96.20;;;;;;5046607;28;20207;-75
2022/03/22 03:47:03;;;;;;;19.27;11.37;;;5.50;95.80;;;;;;5031597;28;20237;-73
2022/03/22 03:47:07;;;;;;;20.37;10.77;;;5.50;95.90;;;;;;5034568;28;20228;-75
2022/03/22 03:49:37;;;;;;;20.50;11.87;;;5.50;96.20;;;;;;5040692;28;20289;-77
2022/03/22 03:52:05;;;;;;;18.67;11.70;;;5.40;96.60;;;;;;5037891;28;20233;-76
2022/03/22 03:54:30;;;;;;;19.53;10.77;;;5.30;97.00;;;;;;5042790;28;20174;-76
2022/03/22 03:56:56;;;;;;;23.87;12.40;;;5.20;97.10;;;;;;5036542;28;20267;-76
2022/03/22 03:59:21;;;;;;;16.30;11.13;;;5.10;97.70;;;;;;5041850;28;20709;-75
2022/03/22 04:01:47;;;;;;;16.97;10.97;;;5.10;97.80;;;;;;5038246;28;20302;-77
2022/03/22 04:04:13;;;;;;;18.57;11.20;;;5.00;97.90;;;;;;5043902;28;20260;-77
2022/03/22 04:06:38;;;;;;;22.43;11.60;;;5.00;97.90;;;;;;5039961;28;20715;-76
2022/03/22 04:09:04;;;;;;;21.40;12.43;;;5.00;98.20;;;;;;5042245;28;20195;-76
2022/03/22 04:11:29;;;;;;;19.00;12.43;;;5.00;98.10;;;;;;5040969;28;20198;-76
2022/03/22 04:13:55;;;;;;;20.10;10.97;;;5.00;98.00;;;;;;5037461;28;20204;-75
2022/03/22 04:16:20;;;;;;;17.00;10.67;;;5.00;98.10;;;;;;5040011;28;20203;-76
2022/03/22 04:18:46;;;;;;;18.23;11.00;;;4.90;98.20;;;;;;5040201;28;20296;-75
2022/03/22 04:21:11;;;;;;;21.17;11.67;;;4.90;98.30;;;;;;5042759;28;20216;-75
2022/03/22 04:23:37;;;;;;;18.50;11.17;;;4.90;98.30;;;;;;5039810;28;20207;-75
2022/03/22 04:26:02;;;;;;;19.80;10.90;;;4.90;98.30;;;;;;5038832;28;20215;-74
2022/03/22 04:33:57;;;;;;;19.17;11.53;;;4.90;98.50;;;;;;5036153;28;20213;-74
2022/03/22 04:36:23;;;;;;;21.83;11.50;;;5.00;98.50;;;;;;5041437;28;20602;-74
2022/03/22 04:38:48;;;;;;;22.63;12.20;;;4.90;98.60;;;;;;5038217;28;20203;-74
2022/03/22 04:41:14;;;;;;;19.13;12.13;;;4.90;98.60;;;;;;5038744;28;20241;-74
2022/03/22 04:43:39;;;;;;;21.20;11.07;;;4.90;98.80;;;;;;5039814;28;20598;-74
2022/03/22 04:46:06;;;;;;;21.37;11.13;;;4.90;98.70;;;;;;5040745;28;20230;-75
2022/03/22 04:48:32;;;;;;;17.50;10.87;;;5.00;98.90;;;;;;5039565;28;20692;-74
2022/03/22 04:56:45;;;;;;;16.47;11.03;;;4.90;98.90;;;;;;5044973;28;20279;-75
2022/03/22 04:59:16;;;;;;;18.23;11.30;;;4.90;98.90;;;;;;5048877;28;20689;-75
2022/03/22 05:01:45;;;;;;;19.70;12.17;;;4.90;99.00;;;;;;5040675;28;20292;-75
2022/03/22 05:04:11;;;;;;;20.10;11.47;;;4.90;99.00;;;;;;5047168;28;20203;-74
2022/03/22 05:06:37;;;;;;;17.23;11.03;;;4.90;99.20;;;;;;5049001;28;20206;-74
2022/03/22 05:09:04;;;;;;;20.63;11.50;;;4.90;98.60;;;;;;5046430;28;20194;-75
2022/03/22 05:11:30;;;;;;;22.37;11.70;;;4.90;99.10;;;;;;5042611;28;20204;-75
2022/03/22 05:13:56;;;;;;;24.87;12.03;;;4.90;99.30;;;;;;5033702;28;20210;-74
2022/03/22 05:16:23;;;;;;;21.43;11.67;;;4.80;99.30;;;;;;5041846;28;20210;-75
2022/03/22 05:18:50;;;;;;;21.37;12.80;;;4.90;99.40;;;;;;5043539;28;20617;-74
2022/03/22 05:21:18;;;;;;;21.30;11.57;;;4.90;99.30;;;;;;5045697;28;20554;-73
2022/03/22 05:23:47;;;;;;;20.73;11.60;;;4.90;99.30;;;;;;5041804;28;20700;-77
2022/03/22 05:26:13;;;;;;;20.30;11.77;;;4.80;99.30;;;;;;5040356;28;20677;-76
2022/03/22 05:28:40;;;;;;;20.70;11.73;;;4.90;99.30;;;;;;5043156;28;20261;-75
2022/03/22 05:31:07;;;;;;;20.40;12.07;;;5.00;99.30;;;;;;5041528;28;20950;-75
2022/03/22 05:33:33;;;;;;;24.33;11.97;;;4.90;99.30;;;;;;5041869;28;20555;-76
2022/03/22 05:35:58;;;;;;;17.73;12.20;;;5.00;99.30;;;;;;5042027;28;20179;-77
2022/03/22 05:38:25;;;;;;;23.97;13.30;;;5.00;99.40;;;;;;5041155;28;20222;-75
2022/03/22 05:40:51;;;;;;;21.03;12.40;;;5.00;99.30;;;;;;5043134;28;20248;-75
2022/03/22 05:43:17;;;;;;;21.27;11.80;;;5.10;99.20;;;;;;5044728;28;20268;-76
2022/03/22 05:45:48;;;;;;;25.43;11.53;;;5.10;99.20;;;;;;5043309;28;20209;-75
2022/03/22 05:48:23;;;;;;;19.40;11.27;;;5.10;99.10;;;;;;5048048;28;20186;-75
2022/03/22 05:50:50;;;;;;;20.97;12.83;;;5.20;99.20;;;;;;5041615;28;20214;-75
2022/03/22 05:53:16;;;;;;;19.13;11.93;;;5.40;98.90;;;;;;5041636;28;20238;-76
2022/03/22 05:55:41;;;;;;;21.20;12.80;;;5.30;98.70;;;;;;5042576;28;20234;-75
2022/03/22 05:58:08;;;;;;;20.43;11.87;;;5.50;98.70;;;;;;5043817;28;20267;-76
2022/03/22 06:00:34;;;;;;;21.77;12.27;;;5.80;98.30;;;;;;5041225;28;20205;-76
2022/03/22 06:03:00;;;;;;;23.87;12.10;;;7.80;96.90;;;;;;5041400;28;20185;-76
2022/03/22 06:05:25;;;;;;;19.13;12.37;;;10.60;93.60;;;;;;5050432;28;20650;-76
2022/03/22 06:07:51;;;;;;;21.33;12.03;;;12.50;90.10;;;;;;5040685;28;20682;-76
2022/03/22 06:10:17;;;;;;;17.60;12.93;;;13.90;84.40;;;;;;5039105;28;20215;-76
2022/03/22 06:12:48;;;;;;;17.33;12.03;;;14.70;80.00;;;;;;5041646;28;20790;-76
2022/03/22 06:15:35;;;;;;;19.70;12.83;;;15.00;77.50;;;;;;5042087;28;20596;-76
2022/03/22 06:18:03;;;;;;;22.47;12.73;;;14.60;76.20;;;;;;5046463;28;20211;-77
2022/03/22 06:20:35;;;;;;;18.00;12.63;;;14.60;75.60;;;;;;5041672;28;20346;-76
2022/03/22 06:23:04;;;;;;;30.27;18.55;;;15.30;73.60;;;;;;5040564;28;20315;-75
2022/03/22 06:25:29;;;;;;;27.20;18.58;;;15.60;72.90;;;;;;5041502;28;20295;-75
2022/03/22 06:27:56;;;;;;;23.92;16.00;;;15.90;72.00;;;;;;5042451;28;20337;-75
2022/03/22 06:30:23;;;;;;;20.35;13.90;;;16.40;71.40;;;;;;5043758;28;20345;-74
2022/03/22 06:32:54;;;;;;;21.02;13.73;;;16.20;70.00;;;;;;5048912;28;20200;-75
2022/03/22 06:35:23;;;;;;;19.25;13.30;;;15.80;68.70;;;;;;5040584;28;20212;-75
2022/03/22 06:37:49;;;;;;;25.02;14.30;;;16.30;69.50;;;;;;5040125;28;20350;-75
2022/03/22 06:40:16;;;;;;;18.88;13.20;;;16.30;68.60;;;;;;5038927;28;20207;-75
2022/03/22 06:42:42;;;;;;;21.98;13.40;;;16.10;69.20;;;;;;5039322;28;20552;-75
2022/03/22 06:45:10;;;;;;;24.70;14.13;;;15.40;68.80;;;;;;5040831;28;20187;-75
2022/03/22 06:47:36;;;;;;;20.63;13.93;;;15.50;69.60;;;;;;5045527;28;20689;-76
2022/03/22 06:50:02;;;;;;;22.77;13.70;;;15.80;68.00;;;;;;5042864;28;20208;-75
2022/03/22 06:52:28;;;;;;;19.75;13.45;;;15.20;69.00;;;;;;5042430;28;20294;-77
2022/03/22 06:54:54;;;;;;;23.15;13.70;;;16.10;67.40;;;;;;5040247;28;20232;-76
2022/03/22 06:57:19;;;;;;;26.48;13.45;;;16.20;67.20;;;;;;5039271;28;20185;-76
2022/03/22 06:59:45;;;;;;;23.70;14.27;;;16.60;65.30;;;;;;5042637;28;20230;-76
2022/03/22 07:02:10;;;;;;;22.15;13.18;;;17.00;64.90;;;;;;5044136;28;20211;-77
2022/03/22 07:04:36;;;;;;;20.30;14.43;;;17.00;64.10;;;;;;5040723;28;20723;-77
2022/03/22 07:07:02;;;;;;;22.85;14.60;;;17.20;63.30;;;;;;5038803;28;20227;-77
2022/03/22 07:09:28;;;;;;;20.35;14.18;;;17.30;62.20;;;;;;5040020;28;20279;-78
2022/03/22 07:11:55;;;;;;;27.70;18.30;;;17.20;61.00;;;;;;5044054;28;20191;-77
2022/03/22 07:14:26;;;;;;;21.45;13.82;;;17.40;62.90;;;;;;5042416;28;20582;-77
2022/03/22 07:16:51;;;;;;;22.45;13.90;;;18.30;61.70;;;;;;5041595;28;20199;-75
2022/03/22 07:19:20;;;;;;;20.80;14.30;;;18.00;60.80;;;;;;5042928;28;20231;-76
2022/03/22 07:21:46;;;;;;;21.05;13.80;;;17.50;60.20;;;;;;5043155;28;20681;-75
2022/03/22 07:24:13;;;;;;;20.10;14.02;;;18.00;59.30;;;;;;5043888;28;20262;-75
2022/03/22 07:26:40;;;;;;;20.83;13.73;;;17.50;59.80;;;;;;5040447;28;20712;-76
2022/03/22 07:29:06;;;;;;;20.75;14.85;;;17.50;59.50;;;;;;5039151;28;20394;-76
2022/03/22 07:31:37;;;;;;;22.98;14.80;;;17.00;60.30;;;;;;5039615;28;20295;-74
2022/03/22 07:34:14;;;;;;;20.70;14.18;;;17.40;59.90;;;;;;5043800;28;20210;-76
2022/03/22 07:36:39;;;;;;;20.63;13.45;;;16.90;59.60;;;;;;5039301;28;20229;-76
2022/03/22 07:41:47;;;;;;;18.95;13.18;;;16.40;60.70;;;;;;5060098;28;20211;-73
2022/03/22 07:44:13;;;;;;;17.92;12.73;;;17.00;60.90;;;;;;5062536;28;20214;-74
2022/03/22 07:46:39;;;;;;;17.40;12.75;;;16.50;59.90;;;;;;5053416;28;20302;-73
2022/03/22 07:54:34;;;;;;;21.33;13.05;;;16.70;59.00;;;;;;5044604;28;20230;-74
2022/03/22 07:56:59;;;;;;;23.25;13.07;;;17.00;59.20;;;;;;5041610;28;20180;-74
2022/03/22 07:59:27;;;;;;;20.60;12.73;;;17.30;58.30;;;;;;5050291;28;20711;-74
2022/03/22 08:01:53;;;;;;;23.90;14.10;;;16.70;59.10;;;;;;5049592;28;20211;-74
2022/03/22 08:04:18;;;;;;;16.20;11.95;;;16.20;59.80;;;;;;5044561;28;20218;-73
2022/03/22 08:06:44;;;;;;;18.00;12.23;;;16.00;59.30;;;;;;5046134;28;20298;-74
2022/03/22 08:09:10;;;;;;;19.33;12.73;;;15.70;61.00;;;;;;5047351;28;20176;-74
2022/03/22 08:11:36;;;;;;;20.02;12.93;;;17.00;60.40;;;;;;5047239;28;20208;-74
2022/03/22 08:14:03;;;;;;;21.75;13.32;;;17.50;58.60;;;;;;5043571;28;20212;-74
2022/03/22 08:16:28;;;;;;;17.85;12.02;;;18.10;58.10;;;;;;5044545;28;20267;-74
2022/03/22 08:18:54;;;;;;;17.95;12.45;;;18.00;58.00;;;;;;5047411;28;20240;-75
2022/03/22 08:21:20;;;;;;;20.88;13.55;;;17.80;58.00;;;;;;5043720;28;20188;-72
2022/03/22 08:23:46;;;;;;;21.45;13.48;;;17.80;58.30;;;;;;5046432;28;20176;-72
2022/03/22 08:26:11;;;;;;;22.50;14.18;;;17.90;58.00;;;;;;5065531;28;20216;-73
2022/03/22 08:28:37;;;;;;;19.08;13.60;;;18.30;58.20;;;;;;5047212;28;20274;-75
2022/03/22 08:31:02;;;;;;;22.15;13.43;;;18.50;58.50;;;;;;5053619;28;20208;-78
2022/03/22 08:33:28;;;;;;;20.08;14.13;;;16.90;58.20;;;;;;5086604;28;20171;-77
2022/03/22 08:35:54;;;;;;;22.80;13.75;;;17.30;59.10;;;;;;5063720;28;20200;-77
2022/03/22 08:38:20;;;;;;;21.90;11.77;;;17.20;58.70;;;;;;5050974;28;20208;-74
2022/03/22 08:40:50;;;;;;;16.38;12.30;;;17.80;58.20;;;;;;5060402;28;20222;-74
2022/03/22 08:43:16;;;;;;;16.90;12.52;;;17.20;57.70;;;;;;5061370;28;20215;-74
2022/03/22 08:45:42;;;;;;;22.40;12.98;;;17.00;58.60;;;;;;5050523;28;20208;-74
2022/03/22 08:48:12;;;;;;;16.48;11.70;;;17.50;58.40;;;;;;5037142;28;20234;-74
2022/03/22 08:50:39;;;;;;;19.17;12.98;;;17.90;58.00;;;;;;5044605;28;20212;-74
2022/03/22 08:53:06;;;;;;;19.65;12.55;;;18.00;58.20;;;;;;5045639;28;20265;-74
2022/03/22 08:55:32;;;;;;;17.98;13.07;;;18.00;57.60;;;;;;5045337;28;20292;-72
2022/03/22 08:58:04;;;;;;;22.05;13.18;;;18.40;57.20;;;;;;5039607;28;20792;-76
2022/03/22 09:00:30;;;;;;;17.63;12.88;;;17.90;57.40;;;;;;5043459;28;20201;-79
2022/03/22 09:02:56;;;;;;;20.00;12.73;;;17.00;58.20;;;;;;5041782;28;20168;-75
2022/03/22 09:08:06;;;;;;;25.58;13.07;;;16.20;59.60;;;;;;5044879;28;20590;-76
2022/03/22 09:10:33;;;;;;;18.30;13.13;;;15.40;61.00;;;;;;5043497;28;20223;-75
2022/03/22 09:12:58;;;;;;;21.83;14.73;;;14.60;62.20;;;;;;5041915;28;20208;-74
2022/03/22 09:15:26;;;;;;;18.50;12.33;;;14.60;64.10;;;;;;5041630;28;20551;-74
2022/03/22 09:17:55;;;;;;;17.37;12.40;;;14.30;64.40;;;;;;5050011;28;20187;-73
2022/03/22 09:20:21;;;;;;;19.13;11.30;;;14.10;64.80;;;;;;5042839;28;20211;-73
2022/03/22 09:22:51;;;;;;;17.80;12.33;;;14.30;65.00;;;;;;5037696;28;20216;-74
2022/03/22 09:25:20;;;;;;;20.77;12.10;;;13.90;65.30;;;;;;5040080;28;20208;-76
2022/03/22 09:27:46;;;;;;;20.97;12.50;;;14.20;65.60;;;;;;5036352;28;20696;-76
2022/03/22 09:30:12;;;;;;;17.27;11.33;;;15.00;65.00;;;;;;5038390;28;20226;-76
2022/03/22 09:32:40;;;;;;;17.57;11.40;;;15.60;63.70;;;;;;5043001;28;20212;-75
2022/03/22 09:35:10;;;;;;;16.07;11.80;;;15.40;62.60;;;;;;5044177;28;20606;-77
2022/03/22 09:37:37;;;;;;;19.40;12.13;;;15.50;62.10;;;;;;5044438;28;20350;-75
2022/03/22 09:40:04;;;;;;;15.27;11.23;;;15.50;61.90;;;;;;5044294;28;20219;-74
2022/03/22 09:42:30;;;;;;;18.87;11.43;;;15.20;63.00;;;;;;5044939;28;20176;-75
2022/03/22 09:44:57;;;;;;;17.17;11.10;;;15.40;62.60;;;;;;5060223;28;20640;-75
2022/03/22 09:47:22;;;;;;;17.90;11.57;;;14.80;62.30;;;;;;5047537;28;20227;-76
2022/03/22 09:49:48;;;;;;;16.70;11.07;;;14.40;62.90;;;;;;5040486;28;20212;-74
2022/03/22 09:52:16;;;;;;;19.50;11.60;;;14.30;63.00;;;;;;5041556;28;20204;-75
2022/03/22 09:54:41;;;;;;;16.70;10.37;;;14.20;63.60;;;;;;5045882;28;20207;-78
2022/03/22 09:57:07;;;;;;;17.63;11.43;;;14.90;63.10;;;;;;5049491;28;20530;-75
2022/03/22 09:59:34;;;;;;;15.47;11.30;;;14.70;62.90;;;;;;5041855;28;20241;-78
2022/03/22 10:02:01;;;;;;;15.60;10.40;;;14.20;62.60;;;;;;5042328;28;20295;-77
2022/03/22 10:04:43;;;;;;;18.93;11.60;;;14.50;63.10;;;;;;5040911;28;20373;-76
2022/03/22 10:07:17;;;;;;;17.67;11.43;;;14.50;62.50;;;;;;5043955;28;20261;-77
2022/03/22 10:09:54;;;;;;;14.63;10.70;;;14.70;61.90;;;;;;5039658;28;20265;-75
2022/03/22 10:12:31;;;;;;;15.97;11.20;;;14.70;61.60;;;;;;5039517;28;20180;-75
2022/03/22 10:15:08;;;;;;;16.43;10.07;;;14.20;61.90;;;;;;5044233;28;20216;-74
2022/03/22 10:17:33;;;;;;;16.63;11.47;;;14.00;62.50;;;;;;5041486;28;20207;-78
2022/03/22 10:19:59;;;;;;;15.27;10.37;;;14.20;62.40;;;;;;5040174;28;20215;-77
2022/03/22 10:22:26;;;;;;;15.00;10.17;;;14.00;61.80;;;;;;5037662;28;20207;-75
2022/03/22 10:24:56;;;;;;;16.53;10.43;;;14.50;60.90;;;;;;5039187;28;20211;-76
2022/03/22 10:27:31;;;;;;;15.77;10.73;;;14.50;60.70;;;;;;5038717;28;20613;-72
2022/03/22 10:29:59;;;;;;;16.47;10.97;;;14.50;61.80;;;;;;5043215;28;20223;-76
2022/03/22 10:32:37;;;;;;;17.33;10.70;;;14.70;62.40;;;;;;5041702;28;20692;-74
2022/03/22 10:35:22;;;;;;;13.13;9.70;;;14.40;61.80;;;;;;5039389;28;20204;-77
2022/03/22 10:37:59;;;;;;;16.63;10.30;;;15.10;60.80;;;;;;5039891;28;20208;-75
2022/03/22 10:40:28;;;;;;;15.37;9.70;;;14.90;60.30;;;;;;5039898;28;20219;-77
2022/03/22 10:42:58;;;;;;;15.23;10.00;;;14.70;60.80;;;;;;5043840;28;20207;-76
2022/03/22 10:45:28;;;;;;;15.67;10.03;;;15.00;61.00;;;;;;5045189;28;20176;-80
2022/03/22 10:47:55;;;;;;;19.03;9.43;;;15.10;60.30;;;;;;5047161;28;20338;-81
2022/03/22 10:50:21;;;;;;;15.47;9.37;;;15.00;58.90;;;;;;5044509;28;20199;-77
2022/03/22 10:52:51;;;;;;;14.43;9.57;;;15.10;58.30;;;;;;5042000;28;20212;-77
2022/03/22 10:55:21;;;;;;;13.83;9.53;;;14.80;58.30;;;;;;5040737;28;20224;-79
2022/03/22 10:57:53;;;;;;;13.40;9.03;;;15.00;59.30;;;;;;5042895;28;20691;-79
2022/03/22 11:00:20;;;;;;;16.43;10.17;;;15.00;59.30;;;;;;5041473;28;20196;-77
2022/03/22 11:02:52;;;;;;;13.53;9.63;;;15.20;59.80;;;;;;5038827;28;20209;-77
2022/03/22 11:05:20;;;;;;;13.17;9.30;;;15.00;58.90;;;;;;5047834;28;20273;-82
2022/03/22 11:07:50;;;;;;;13.57;8.77;;;14.90;58.30;;;;;;5041067;28;20226;-81
2022/03/22 11:10:18;;;;;;;13.50;9.23;;;14.80;57.30;;;;;;5065771;28;20215;-79
2022/03/22 11:12:44;;;;;;;12.93;9.47;;;14.90;57.80;;;;;;5049598;28;20213;-76
2022/03/22 11:15:12;;;;;;;12.97;9.60;;;14.90;58.30;;;;;;5039971;28;20184;-78
2022/03/22 11:17:39;;;;;;;12.83;9.20;;;15.00;58.30;;;;;;5046393;28;20207;-78
2022/03/22 11:20:08;;;;;;;12.73;9.93;;;14.90;58.90;;;;;;5043664;28;20636;-80
2022/03/22 11:22:33;;;;;;;16.50;9.37;;;14.90;59.30;;;;;;5037908;28;20305;-78
2022/03/22 11:25:31;;;;;;;13.50;8.87;;;14.90;59.10;;;;;;5040467;28;20295;-79
2022/03/22 11:28:08;;;;;;;12.83;10.17;;;14.90;58.10;;;;;;5039980;28;20655;-77
2022/03/22 11:30:35;;;;;;;16.50;10.63;;;15.00;58.50;;;;;;5039597;28;20291;-78
2022/03/22 11:35:56;;;;;;;12.67;8.00;;;15.30;58.00;;;;;;5042739;28;20214;-77
2022/03/22 11:38:42;;;;;;;12.90;8.20;;;15.50;57.80;;;;;;5043867;28;20277;-72
2022/03/22 11:44:12;;;;;;;13.03;8.93;;;15.50;56.90;;;;;;5043025;28;20238;-74
2022/03/22 11:46:39;;;;;;;13.80;8.93;;;15.60;57.50;;;;;;5062126;28;20740;-75
2022/03/22 11:49:21;;;;;;;11.23;8.40;;;15.90;57.30;;;;;;5042256;28;20295;-77
2022/03/22 11:51:54;;;;;;;11.45;8.55;;;15.80;57.20;;;;;;5046971;28;20265;-75
2022/03/22 11:54:21;;;;;;;12.90;8.60;;;15.70;57.30;;;;;;5045952;28;20211;-75
2022/03/22 11:56:49;;;;;;;10.43;8.33;;;15.60;57.70;;;;;;5060489;28;20176;-79
2022/03/22 11:59:16;;;;;;;13.85;9.13;;;15.80;57.20;;;;;;5043788;28;21157;-77
2022/03/22 12:01:53;;;;;;;12.52;9.10;;;15.90;57.00;;;;;;5044617;28;20247;-78
2022/03/22 12:04:19;;;;;;;10.73;8.35;;;15.90;57.40;;;;;;5043761;28;20211;-78
2022/03/22 12:06:45;;;;;;;12.23;8.50;;;16.10;57.10;;;;;;5049514;28;20716;-78
2022/03/22 12:09:10;;;;;;;13.07;8.05;;;15.80;56.80;;;;;;5063075;28;20342;-75
2022/03/22 12:11:37;;;;;;;17.65;8.73;;;15.80;57.10;;;;;;5043768;28;20649;-76
2022/03/22 12:14:03;;;;;;;11.68;7.55;;;15.80;56.70;;;;;;5041721;28;20249;-75
2022/03/22 12:16:28;;;;;;;11.73;8.02;;;15.70;56.00;;;;;;5042616;28;20287;-75
2022/03/22 12:18:54;;;;;;;12.60;8.95;;;15.90;55.70;;;;;;5048995;28;20275;-76
2022/03/22 12:21:21;;;;;;;10.88;8.45;;;15.70;55.50;;;;;;5059006;28;20189;-79
2022/03/22 12:23:48;;;;;;;10.90;8.55;;;15.90;56.30;;;;;;5044773;28;20255;-83
2022/03/22 12:26:13;;;;;;;10.15;8.00;;;15.90;56.00;;;;;;5041084;28;20255;-77
2022/03/22 12:28:49;;;;;;;12.70;7.68;;;16.10;55.80;;;;;;5042355;28;20777;-75
2022/03/22 12:31:15;;;;;;;13.90;8.10;;;16.10;55.10;;;;;;5045384;28;20234;-74
2022/03/22 12:33:40;;;;;;;14.45;8.40;;;16.20;55.00;;;;;;5031159;28;20693;-74
2022/03/22 12:36:06;;;;;;;8.95;7.32;;;16.20;54.50;;;;;;5045738;28;20258;-74
2022/03/22 12:38:32;;;;;;;9.70;7.43;;;16.30;54.80;;;;;;5041856;28;20203;-74
2022/03/22 12:40:57;;;;;;;12.63;7.47;;;16.40;54.70;;;;;;5040865;28;20220;-74
2022/03/22 12:43:23;;;;;;;11.10;7.93;;;16.60;55.00;;;;;;5040702;28;20200;-74
2022/03/22 12:45:50;;;;;;;9.60;7.60;;;16.40;55.30;;;;;;5039923;28;20223;-74
2022/03/22 12:48:18;;;;;;;16.75;8.82;;;16.50;55.60;;;;;;5041345;28;20543;-74
2022/03/22 12:50:44;;;;;;;11.20;8.00;;;16.50;55.40;;;;;;5041016;28;20204;-74
2022/03/22 12:53:10;;;;;;;10.95;6.88;;;16.50;54.50;;;;;;5042355;28;20841;-75
2022/03/22 12:55:40;;;;;;;8.82;6.72;;;16.60;54.30;;;;;;5036168;28;20208;-74
2022/03/22 12:58:06;;;;;;;13.88;7.40;;;16.40;54.20;;;;;;5043668;28;20207;-75
2022/03/22 13:00:39;;;;;;;12.73;7.22;;;16.40;54.30;;;;;;5043954;28;20244;-73
2022/03/22 13:03:06;;;;;;;11.43;6.47;;;16.40;54.00;;;;;;5042987;28;20179;-74
2022/03/22 13:05:32;;;;;;;8.57;7.03;;;16.30;53.50;;;;;;5043893;28;20212;-74
2022/03/22 13:08:00;;;;;;;11.60;6.13;;;16.20;53.20;;;;;;5041534;28;20216;-72
2022/03/22 13:13:21;;;;;;;7.60;5.70;;;16.20;52.20;;;;;;5042128;28;20235;-74
2022/03/22 13:15:53;;;;;;;8.85;6.20;;;16.30;52.00;;;;;;5034940;28;20314;-76